sensor_id;sensor_type;location;lat;lon;timestamp;P1;durP1;ratioP1;P2;durP2;ratioP2
46493;SDS011;53214;49.314;6.280;2022-08-19T00:01:52;7.78;;;6.60;;
46493;SDS011;53214;49.314;6.280;2022-08-19T00:04:21;8.60;;;6.90;;
46493;SDS011;53214;49.314;6.280;2022-08-19T00:06:52;7.72;;;6.70;;
46493;SDS011;53214;49.314;6.280;2022-08-19T00:09:19;7.10;;;6.40;;
46493;SDS011;53214;49.314;6.280;2022-08-19T00:11:47;7.53;;;6.68;;
46493;SDS011;53214;49.314;6.280;2022-08-19T00:14:16;6.53;;;5.93;;
46493;SDS011;53214;49.314;6.280;2022-08-19T00:16:45;7.45;;;6.32;;
46493;SDS011;53214;49.314;6.280;2022-08-19T00:19:14;7.95;;;5.90;;
46493;SDS011;53214;49.314;6.280;2022-08-19T00:21:42;8.38;;;6.50;;
46493;SDS011;53214;49.314;6.280;2022-08-19T00:24:10;9.20;;;6.70;;
46493;SDS011;53214;49.314;6.280;2022-08-19T00:26:38;9.77;;;5.95;;
46493;SDS011;53214;49.314;6.280;2022-08-19T00:29:06;9.85;;;6.65;;
46493;SDS011;53214;49.314;6.280;2022-08-19T00:31:35;8.00;;;7.20;;
46493;SDS011;53214;49.314;6.280;2022-08-19T00:34:02;8.07;;;7.28;;
46493;SDS011;53214;49.314;6.280;2022-08-19T00:36:30;7.50;;;6.75;;
46493;SDS011;53214;49.314;6.280;2022-08-19T00:38:59;8.20;;;7.40;;
46493;SDS011;53214;49.314;6.280;2022-08-19T00:41:26;8.40;;;6.70;;
46493;SDS011;53214;49.314;6.280;2022-08-19T00:44:04;9.35;;;6.97;;
46493;SDS011;53214;49.314;6.280;2022-08-19T00:46:39;8.25;;;6.75;;
46493;SDS011;53214;49.314;6.280;2022-08-19T00:49:10;7.60;;;6.90;;
46493;SDS011;53214;49.314;6.280;2022-08-19T00:51:41;7.65;;;6.85;;
46493;SDS011;53214;49.314;6.280;2022-08-19T00:54:11;7.82;;;6.90;;
46493;SDS011;53214;49.314;6.280;2022-08-19T00:56:38;7.57;;;6.75;;
46493;SDS011;53214;49.314;6.280;2022-08-19T00:59:06;7.60;;;6.80;;
46493;SDS011;53214;49.314;6.280;2022-08-19T01:01:38;8.02;;;7.15;;
46493;SDS011;53214;49.314;6.280;2022-08-19T01:04:08;7.60;;;6.90;;
46493;SDS011;53214;49.314;6.280;2022-08-19T01:06:35;7.32;;;6.60;;
46493;SDS011;53214;49.314;6.280;2022-08-19T01:09:04;8.20;;;7.40;;
46493;SDS011;53214;49.314;6.280;2022-08-19T01:11:32;8.27;;;7.18;;
46493;SDS011;53214;49.314;6.280;2022-08-19T01:14:03;8.38;;;7.57;;
46493;SDS011;53214;49.314;6.280;2022-08-19T01:16:31;8.60;;;7.80;;
46493;SDS011;53214;49.314;6.280;2022-08-19T01:18:59;8.90;;;8.00;;
46493;SDS011;53214;49.314;6.280;2022-08-19T01:21:31;8.20;;;7.38;;
46493;SDS011;53214;49.314;6.280;2022-08-19T01:24:08;9.15;;;7.75;;
46493;SDS011;53214;49.314;6.280;2022-08-19T01:26:40;9.23;;;7.95;;
46493;SDS011;53214;49.314;6.280;2022-08-19T01:29:09;8.93;;;8.02;;
46493;SDS011;53214;49.314;6.280;2022-08-19T01:31:36;7.57;;;6.88;;
46493;SDS011;53214;49.314;6.280;2022-08-19T01:34:05;9.25;;;8.40;;
46493;SDS011;53214;49.314;6.280;2022-08-19T01:39:15;8.30;;;7.50;;
46493;SDS011;53214;49.314;6.280;2022-08-19T01:41:46;8.43;;;7.60;;
46493;SDS011;53214;49.314;6.280;2022-08-19T01:44:14;8.98;;;8.02;;
46493;SDS011;53214;49.314;6.280;2022-08-19T01:46:44;8.98;;;8.05;;
46493;SDS011;53214;49.314;6.280;2022-08-19T01:49:13;10.73;;;8.18;;
46493;SDS011;53214;49.314;6.280;2022-08-19T01:51:40;9.05;;;7.97;;
46493;SDS011;53214;49.314;6.280;2022-08-19T01:54:08;8.80;;;8.00;;
46493;SDS011;53214;49.314;6.280;2022-08-19T01:56:36;10.13;;;7.53;;
46493;SDS011;53214;49.314;6.280;2022-08-19T01:59:06;9.27;;;8.38;;
46493;SDS011;53214;49.314;6.280;2022-08-19T02:01:38;10.55;;;8.00;;
46493;SDS011;53214;49.314;6.280;2022-08-19T02:04:05;10.35;;;8.55;;
46493;SDS011;53214;49.314;6.280;2022-08-19T02:06:32;8.93;;;7.85;;
46493;SDS011;53214;49.314;6.280;2022-08-19T02:09:00;9.13;;;8.23;;
46493;SDS011;53214;49.314;6.280;2022-08-19T02:11:30;10.15;;;8.48;;
46493;SDS011;53214;49.314;6.280;2022-08-19T02:14:00;9.38;;;8.48;;
46493;SDS011;53214;49.314;6.280;2022-08-19T02:16:29;8.85;;;8.02;;
46493;SDS011;53214;49.314;6.280;2022-08-19T02:18:56;9.45;;;8.45;;
46493;SDS011;53214;49.314;6.280;2022-08-19T02:21:26;9.18;;;8.27;;
46493;SDS011;53214;49.314;6.280;2022-08-19T02:23:54;10.75;;;9.00;;
46493;SDS011;53214;49.314;6.280;2022-08-19T02:26:21;9.13;;;8.30;;
46493;SDS011;53214;49.314;6.280;2022-08-19T02:28:49;9.15;;;8.35;;
46493;SDS011;53214;49.314;6.280;2022-08-19T02:31:17;10.02;;;8.70;;
46493;SDS011;53214;49.314;6.280;2022-08-19T02:33:46;9.52;;;8.30;;
46493;SDS011;53214;49.314;6.280;2022-08-19T02:36:14;9.95;;;8.95;;
46493;SDS011;53214;49.314;6.280;2022-08-19T02:38:46;9.65;;;8.75;;
46493;SDS011;53214;49.314;6.280;2022-08-19T02:41:27;9.57;;;8.60;;
46493;SDS011;53214;49.314;6.280;2022-08-19T02:46:45;9.93;;;8.27;;
46493;SDS011;53214;49.314;6.280;2022-08-19T02:49:13;9.63;;;8.73;;
46493;SDS011;53214;49.314;6.280;2022-08-19T02:51:43;9.05;;;8.18;;
46493;SDS011;53214;49.314;6.280;2022-08-19T02:54:12;10.05;;;9.00;;
46493;SDS011;53214;49.314;6.280;2022-08-19T02:56:40;9.80;;;8.82;;
46493;SDS011;53214;49.314;6.280;2022-08-19T02:59:09;9.70;;;8.80;;
46493;SDS011;53214;49.314;6.280;2022-08-19T03:01:39;10.15;;;9.15;;
46493;SDS011;53214;49.314;6.280;2022-08-19T03:04:08;10.95;;;8.90;;
46493;SDS011;53214;49.314;6.280;2022-08-19T03:06:37;10.10;;;8.90;;
46493;SDS011;53214;49.314;6.280;2022-08-19T03:09:05;8.68;;;7.88;;
46493;SDS011;53214;49.314;6.280;2022-08-19T03:11:32;10.02;;;9.13;;
46493;SDS011;53214;49.314;6.280;2022-08-19T03:14:00;9.57;;;8.52;;
46493;SDS011;53214;49.314;6.280;2022-08-19T03:16:29;9.00;;;8.20;;
46493;SDS011;53214;49.314;6.280;2022-08-19T03:18:59;10.57;;;9.65;;
46493;SDS011;53214;49.314;6.280;2022-08-19T03:21:32;9.95;;;9.05;;
46493;SDS011;53214;49.314;6.280;2022-08-19T03:24:01;9.85;;;8.88;;
46493;SDS011;53214;49.314;6.280;2022-08-19T03:26:30;10.88;;;9.95;;
46493;SDS011;53214;49.314;6.280;2022-08-19T03:29:00;9.73;;;8.82;;
46493;SDS011;53214;49.314;6.280;2022-08-19T03:31:30;11.35;;;10.27;;
46493;SDS011;53214;49.314;6.280;2022-08-19T03:34:18;11.60;;;9.50;;
46493;SDS011;53214;49.314;6.280;2022-08-19T03:36:47;10.52;;;9.52;;
46493;SDS011;53214;49.314;6.280;2022-08-19T03:39:14;11.25;;;8.77;;
46493;SDS011;53214;49.314;6.280;2022-08-19T03:41:43;10.73;;;9.63;;
46493;SDS011;53214;49.314;6.280;2022-08-19T03:44:14;9.80;;;8.90;;
46493;SDS011;53214;49.314;6.280;2022-08-19T03:46:46;10.00;;;9.00;;
46493;SDS011;53214;49.314;6.280;2022-08-19T03:49:15;12.40;;;10.93;;
46493;SDS011;53214;49.314;6.280;2022-08-19T03:51:44;12.13;;;10.13;;
46493;SDS011;53214;49.314;6.280;2022-08-19T03:54:13;11.35;;;10.35;;
46493;SDS011;53214;49.314;6.280;2022-08-19T03:56:41;10.90;;;9.90;;
46493;SDS011;53214;49.314;6.280;2022-08-19T03:59:10;10.23;;;9.27;;
46493;SDS011;53214;49.314;6.280;2022-08-19T04:01:39;11.98;;;9.75;;
46493;SDS011;53214;49.314;6.280;2022-08-19T04:04:07;10.73;;;9.70;;
46493;SDS011;53214;49.314;6.280;2022-08-19T04:06:35;11.95;;;10.77;;
46493;SDS011;53214;49.314;6.280;2022-08-19T04:09:06;11.40;;;10.30;;
46493;SDS011;53214;49.314;6.280;2022-08-19T04:11:42;11.18;;;10.18;;
46493;SDS011;53214;49.314;6.280;2022-08-19T04:14:12;11.13;;;10.02;;
46493;SDS011;53214;49.314;6.280;2022-08-19T04:16:43;11.95;;;10.02;;
46493;SDS011;53214;49.314;6.280;2022-08-19T04:19:11;11.07;;;9.98;;
46493;SDS011;53214;49.314;6.280;2022-08-19T04:21:38;11.43;;;10.15;;
46493;SDS011;53214;49.314;6.280;2022-08-19T04:24:05;11.68;;;10.57;;
46493;SDS011;53214;49.314;6.280;2022-08-19T04:26:34;11.05;;;9.93;;
46493;SDS011;53214;49.314;6.280;2022-08-19T04:29:22;11.15;;;10.05;;
46493;SDS011;53214;49.314;6.280;2022-08-19T04:31:52;11.07;;;10.07;;
46493;SDS011;53214;49.314;6.280;2022-08-19T04:34:20;11.20;;;10.00;;
46493;SDS011;53214;49.314;6.280;2022-08-19T04:36:49;12.70;;;9.85;;
46493;SDS011;53214;49.314;6.280;2022-08-19T04:39:19;10.55;;;9.55;;
46493;SDS011;53214;49.314;6.280;2022-08-19T04:41:48;11.98;;;10.77;;
46493;SDS011;53214;49.314;6.280;2022-08-19T04:44:34;10.93;;;9.93;;
46493;SDS011;53214;49.314;6.280;2022-08-19T04:47:11;10.98;;;9.65;;
46493;SDS011;53214;49.314;6.280;2022-08-19T04:49:38;11.98;;;9.18;;
46493;SDS011;53214;49.314;6.280;2022-08-19T04:52:05;10.73;;;9.73;;
46493;SDS011;53214;49.314;6.280;2022-08-19T04:54:32;13.40;;;9.90;;
46493;SDS011;53214;49.314;6.280;2022-08-19T04:57:05;11.68;;;10.52;;
46493;SDS011;53214;49.314;6.280;2022-08-19T04:59:37;15.13;;;11.00;;
46493;SDS011;53214;49.314;6.280;2022-08-19T05:02:04;19.00;;;10.35;;
46493;SDS011;53214;49.314;6.280;2022-08-19T05:04:32;12.55;;;10.05;;
46493;SDS011;53214;49.314;6.280;2022-08-19T05:07:00;12.00;;;10.60;;
46493;SDS011;53214;49.314;6.280;2022-08-19T05:09:28;12.10;;;10.32;;
46493;SDS011;53214;49.314;6.280;2022-08-19T05:12:16;12.15;;;10.60;;
46493;SDS011;53214;49.314;6.280;2022-08-19T05:14:44;11.13;;;9.95;;
46493;SDS011;53214;49.314;6.280;2022-08-19T05:17:13;12.60;;;10.35;;
46493;SDS011;53214;49.314;6.280;2022-08-19T05:20:00;12.38;;;10.57;;
46493;SDS011;53214;49.314;6.280;2022-08-19T05:22:47;13.77;;;10.55;;
46493;SDS011;53214;49.314;6.280;2022-08-19T05:25:15;12.30;;;10.85;;
46493;SDS011;53214;49.314;6.280;2022-08-19T05:27:45;12.38;;;10.65;;
46493;SDS011;53214;49.314;6.280;2022-08-19T05:30:13;12.02;;;10.82;;
46493;SDS011;53214;49.314;6.280;2022-08-19T05:32:41;11.90;;;10.70;;
46493;SDS011;53214;49.314;6.280;2022-08-19T05:35:09;12.15;;;10.52;;
46493;SDS011;53214;49.314;6.280;2022-08-19T05:37:39;12.43;;;11.00;;
46493;SDS011;53214;49.314;6.280;2022-08-19T05:40:07;10.88;;;9.80;;
46493;SDS011;53214;49.314;6.280;2022-08-19T05:42:35;11.13;;;9.63;;
46493;SDS011;53214;49.314;6.280;2022-08-19T05:45:02;10.77;;;9.68;;
46493;SDS011;53214;49.314;6.280;2022-08-19T05:47:30;11.75;;;10.63;;
46493;SDS011;53214;49.314;6.280;2022-08-19T05:49:58;11.73;;;10.50;;
46493;SDS011;53214;49.314;6.280;2022-08-19T05:52:25;13.23;;;11.80;;
46493;SDS011;53214;49.314;6.280;2022-08-19T05:54:53;11.88;;;10.65;;
46493;SDS011;53214;49.314;6.280;2022-08-19T05:57:22;12.88;;;11.45;;
46493;SDS011;53214;49.314;6.280;2022-08-19T05:59:50;14.30;;;11.32;;
46493;SDS011;53214;49.314;6.280;2022-08-19T06:02:23;14.00;;;11.70;;
46493;SDS011;53214;49.314;6.280;2022-08-19T06:04:54;14.38;;;11.35;;
46493;SDS011;53214;49.314;6.280;2022-08-19T06:07:21;13.98;;;11.02;;
46493;SDS011;53214;49.314;6.280;2022-08-19T06:09:48;12.38;;;11.10;;
46493;SDS011;53214;49.314;6.280;2022-08-19T06:12:27;13.93;;;11.73;;
46493;SDS011;53214;49.314;6.280;2022-08-19T06:14:58;14.65;;;13.15;;
46493;SDS011;53214;49.314;6.280;2022-08-19T06:17:27;13.25;;;11.93;;
46493;SDS011;53214;49.314;6.280;2022-08-19T06:19:57;14.50;;;11.90;;
46493;SDS011;53214;49.314;6.280;2022-08-19T06:22:25;14.63;;;13.10;;
46493;SDS011;53214;49.314;6.280;2022-08-19T06:24:53;13.93;;;12.23;;
46493;SDS011;53214;49.314;6.280;2022-08-19T06:27:20;14.45;;;12.85;;
46493;SDS011;53214;49.314;6.280;2022-08-19T06:29:47;18.38;;;12.30;;
46493;SDS011;53214;49.314;6.280;2022-08-19T06:32:15;14.25;;;12.30;;
46493;SDS011;53214;49.314;6.280;2022-08-19T06:34:44;15.85;;;12.73;;
46493;SDS011;53214;49.314;6.280;2022-08-19T06:37:11;13.23;;;11.77;;
46493;SDS011;53214;49.314;6.280;2022-08-19T06:39:39;14.43;;;12.68;;
46493;SDS011;53214;49.314;6.280;2022-08-19T06:42:08;17.50;;;12.85;;
46493;SDS011;53214;49.314;6.280;2022-08-19T06:44:39;15.43;;;12.95;;
46493;SDS011;53214;49.314;6.280;2022-08-19T06:47:09;15.48;;;12.60;;
46493;SDS011;53214;49.314;6.280;2022-08-19T06:49:48;16.20;;;11.68;;
46493;SDS011;53214;49.314;6.280;2022-08-19T06:52:15;13.20;;;11.80;;
46493;SDS011;53214;49.314;6.280;2022-08-19T06:54:43;16.52;;;12.38;;
46493;SDS011;53214;49.314;6.280;2022-08-19T06:57:22;18.02;;;12.40;;
46493;SDS011;53214;49.314;6.280;2022-08-19T06:59:50;15.43;;;11.25;;
46493;SDS011;53214;49.314;6.280;2022-08-19T07:02:18;13.50;;;12.10;;
46493;SDS011;53214;49.314;6.280;2022-08-19T07:04:47;13.40;;;12.00;;
46493;SDS011;53214;49.314;6.280;2022-08-19T07:07:18;15.25;;;12.52;;
46493;SDS011;53214;49.314;6.280;2022-08-19T07:09:47;14.13;;;12.70;;
46493;SDS011;53214;49.314;6.280;2022-08-19T07:12:25;14.82;;;11.80;;
46493;SDS011;53214;49.314;6.280;2022-08-19T07:15:01;14.00;;;12.60;;
46493;SDS011;53214;49.314;6.280;2022-08-19T07:17:31;14.60;;;11.82;;
46493;SDS011;53214;49.314;6.280;2022-08-19T07:20:00;13.02;;;11.70;;
46493;SDS011;53214;49.314;6.280;2022-08-19T07:22:32;13.23;;;11.82;;
46493;SDS011;53214;49.314;6.280;2022-08-19T07:25:00;12.82;;;11.30;;
46493;SDS011;53214;49.314;6.280;2022-08-19T07:27:29;14.00;;;12.70;;
46493;SDS011;53214;49.314;6.280;2022-08-19T07:29:59;14.93;;;13.43;;
46493;SDS011;53214;49.314;6.280;2022-08-19T07:32:26;14.85;;;13.32;;
46493;SDS011;53214;49.314;6.280;2022-08-19T07:34:53;14.82;;;13.27;;
46493;SDS011;53214;49.314;6.280;2022-08-19T07:37:22;14.30;;;12.80;;
46493;SDS011;53214;49.314;6.280;2022-08-19T07:39:58;14.02;;;12.52;;
46493;SDS011;53214;49.314;6.280;2022-08-19T07:42:25;13.82;;;11.75;;
46493;SDS011;53214;49.314;6.280;2022-08-19T07:44:52;14.65;;;12.70;;
46493;SDS011;53214;49.314;6.280;2022-08-19T07:47:19;16.42;;;13.90;;
46493;SDS011;53214;49.314;6.280;2022-08-19T07:50:09;17.50;;;15.75;;
46493;SDS011;53214;49.314;6.280;2022-08-19T07:52:38;17.67;;;15.98;;
46493;SDS011;53214;49.314;6.280;2022-08-19T07:55:07;18.90;;;15.20;;
46493;SDS011;53214;49.314;6.280;2022-08-19T07:57:55;16.60;;;14.63;;
46493;SDS011;53214;49.314;6.280;2022-08-19T08:00:22;17.95;;;13.63;;
46493;SDS011;53214;49.314;6.280;2022-08-19T08:02:50;15.90;;;14.15;;
46493;SDS011;53214;49.314;6.280;2022-08-19T08:05:21;15.32;;;13.82;;
46493;SDS011;53214;49.314;6.280;2022-08-19T08:08:09;15.20;;;13.40;;
46493;SDS011;53214;49.314;6.280;2022-08-19T08:10:57;15.15;;;13.52;;
46493;SDS011;53214;49.314;6.280;2022-08-19T08:13:24;15.60;;;14.10;;
46493;SDS011;53214;49.314;6.280;2022-08-19T08:15:52;17.42;;;13.60;;
46493;SDS011;53214;49.314;6.280;2022-08-19T08:18:21;16.35;;;14.75;;
46493;SDS011;53214;49.314;6.280;2022-08-19T08:20:55;14.53;;;12.67;;
46493;SDS011;53214;49.314;6.280;2022-08-19T08:23:23;13.68;;;12.38;;
46493;SDS011;53214;49.314;6.280;2022-08-19T08:25:56;14.63;;;12.57;;
46493;SDS011;53214;49.314;6.280;2022-08-19T08:28:24;15.77;;;14.27;;
46493;SDS011;53214;49.314;6.280;2022-08-19T08:30:55;13.27;;;12.05;;
46493;SDS011;53214;49.314;6.280;2022-08-19T08:33:26;13.98;;;12.40;;
46493;SDS011;53214;49.314;6.280;2022-08-19T08:36:06;14.18;;;12.88;;
46493;SDS011;53214;49.314;6.280;2022-08-19T08:38:34;12.98;;;11.75;;
46493;SDS011;53214;49.314;6.280;2022-08-19T08:44:02;12.27;;;11.07;;
46493;SDS011;53214;49.314;6.280;2022-08-19T08:46:34;13.13;;;11.68;;
46493;SDS011;53214;49.314;6.280;2022-08-19T08:52:07;13.90;;;12.57;;
46493;SDS011;53214;49.314;6.280;2022-08-19T08:54:46;14.25;;;11.93;;
46493;SDS011;53214;49.314;6.280;2022-08-19T08:59:50;13.25;;;11.48;;
46493;SDS011;53214;49.314;6.280;2022-08-19T09:02:19;13.45;;;11.35;;
46493;SDS011;53214;49.314;6.280;2022-08-19T09:04:46;12.25;;;10.90;;
46493;SDS011;53214;49.314;6.280;2022-08-19T09:10:31;11.85;;;10.75;;
46493;SDS011;53214;49.314;6.280;2022-08-19T09:15:54;12.20;;;10.95;;
46493;SDS011;53214;49.314;6.280;2022-08-19T09:18:38;13.18;;;11.80;;
46493;SDS011;53214;49.314;6.280;2022-08-19T09:21:12;11.90;;;10.75;;
46493;SDS011;53214;49.314;6.280;2022-08-19T09:23:40;12.48;;;11.15;;
46493;SDS011;53214;49.314;6.280;2022-08-19T09:26:09;11.82;;;10.63;;
46493;SDS011;53214;49.314;6.280;2022-08-19T09:28:43;14.35;;;11.95;;
46493;SDS011;53214;49.314;6.280;2022-08-19T09:31:15;17.58;;;10.95;;
46493;SDS011;53214;49.314;6.280;2022-08-19T09:33:45;14.25;;;10.70;;
46493;SDS011;53214;49.314;6.280;2022-08-19T09:36:14;14.27;;;10.93;;
46493;SDS011;53214;49.314;6.280;2022-08-19T09:38:59;17.38;;;11.65;;
46493;SDS011;53214;49.314;6.280;2022-08-19T09:41:27;13.27;;;11.90;;
46493;SDS011;53214;49.314;6.280;2022-08-19T09:43:55;13.82;;;11.82;;
46493;SDS011;53214;49.314;6.280;2022-08-19T09:46:25;12.00;;;9.57;;
46493;SDS011;53214;49.314;6.280;2022-08-19T09:48:56;10.63;;;9.50;;
46493;SDS011;53214;49.314;6.280;2022-08-19T09:51:31;13.80;;;8.93;;
46493;SDS011;53214;49.314;6.280;2022-08-19T09:54:00;13.63;;;11.20;;
46493;SDS011;53214;49.314;6.280;2022-08-19T09:56:30;14.25;;;10.50;;
46493;SDS011;53214;49.314;6.280;2022-08-19T09:58:59;12.50;;;10.00;;
46493;SDS011;53214;49.314;6.280;2022-08-19T10:01:28;12.45;;;9.98;;
46493;SDS011;53214;49.314;6.280;2022-08-19T10:03:57;14.93;;;9.02;;
46493;SDS011;53214;49.314;6.280;2022-08-19T10:06:26;12.20;;;9.45;;
46493;SDS011;53214;49.314;6.280;2022-08-19T10:09:12;11.45;;;9.27;;
46493;SDS011;53214;49.314;6.280;2022-08-19T10:11:41;9.73;;;8.70;;
46493;SDS011;53214;49.314;6.280;2022-08-19T10:14:19;15.13;;;9.48;;
46493;SDS011;53214;49.314;6.280;2022-08-19T10:16:48;10.20;;;9.20;;
46493;SDS011;53214;49.314;6.280;2022-08-19T10:19:18;10.68;;;8.60;;
46493;SDS011;53214;49.314;6.280;2022-08-19T10:21:51;10.85;;;8.88;;
46493;SDS011;53214;49.314;6.280;2022-08-19T10:24:20;10.93;;;9.70;;
46493;SDS011;53214;49.314;6.280;2022-08-19T10:26:50;10.57;;;8.68;;
46493;SDS011;53214;49.314;6.280;2022-08-19T10:29:24;10.27;;;9.27;;
46493;SDS011;53214;49.314;6.280;2022-08-19T10:31:58;10.27;;;9.18;;
46493;SDS011;53214;49.314;6.280;2022-08-19T10:34:28;10.13;;;9.10;;
46493;SDS011;53214;49.314;6.280;2022-08-19T10:36:57;10.98;;;9.35;;
46493;SDS011;53214;49.314;6.280;2022-08-19T10:39:27;13.00;;;9.30;;
46493;SDS011;53214;49.314;6.280;2022-08-19T10:41:56;11.63;;;9.50;;
46493;SDS011;53214;49.314;6.280;2022-08-19T10:44:23;10.50;;;9.40;;
46493;SDS011;53214;49.314;6.280;2022-08-19T10:46:58;11.38;;;9.75;;
46493;SDS011;53214;49.314;6.280;2022-08-19T10:49:25;10.85;;;9.15;;
46493;SDS011;53214;49.314;6.280;2022-08-19T10:51:53;10.10;;;9.07;;
46493;SDS011;53214;49.314;6.280;2022-08-19T10:54:46;12.10;;;10.82;;
46493;SDS011;53214;49.314;6.280;2022-08-19T10:57:33;12.07;;;10.60;;
46493;SDS011;53214;49.314;6.280;2022-08-19T11:00:21;11.20;;;9.68;;
46493;SDS011;53214;49.314;6.280;2022-08-19T11:02:49;12.02;;;10.82;;
46493;SDS011;53214;49.314;6.280;2022-08-19T11:05:17;12.82;;;11.27;;
46493;SDS011;53214;49.314;6.280;2022-08-19T11:07:45;13.00;;;11.68;;
46493;SDS011;53214;49.314;6.280;2022-08-19T11:10:13;13.00;;;11.73;;
46493;SDS011;53214;49.314;6.280;2022-08-19T11:15:13;10.85;;;9.48;;
46493;SDS011;53214;49.314;6.280;2022-08-19T11:17:40;11.88;;;10.68;;
46493;SDS011;53214;49.314;6.280;2022-08-19T11:20:08;11.13;;;9.82;;
46493;SDS011;53214;49.314;6.280;2022-08-19T11:22:36;11.55;;;9.30;;
46493;SDS011;53214;49.314;6.280;2022-08-19T11:25:07;16.55;;;11.25;;
46493;SDS011;53214;49.314;6.280;2022-08-19T11:27:39;9.65;;;8.75;;
46493;SDS011;53214;49.314;6.280;2022-08-19T11:30:09;10.75;;;8.68;;
46493;SDS011;53214;49.314;6.280;2022-08-19T11:32:38;10.68;;;9.57;;
46493;SDS011;53214;49.314;6.280;2022-08-19T11:35:12;10.38;;;9.20;;
46493;SDS011;53214;49.314;6.280;2022-08-19T11:37:39;8.98;;;7.85;;
46493;SDS011;53214;49.314;6.280;2022-08-19T11:40:07;9.85;;;8.88;;
46493;SDS011;53214;49.314;6.280;2022-08-19T11:42:34;11.10;;;8.02;;
46493;SDS011;53214;49.314;6.280;2022-08-19T11:45:20;8.50;;;7.70;;
46493;SDS011;53214;49.314;6.280;2022-08-19T11:47:47;9.20;;;6.75;;
46493;SDS011;53214;49.314;6.280;2022-08-19T11:50:15;6.57;;;5.80;;
46493;SDS011;53214;49.314;6.280;2022-08-19T11:52:43;7.15;;;6.25;;
46493;SDS011;53214;49.314;6.280;2022-08-19T11:55:12;7.38;;;5.53;;
46493;SDS011;53214;49.314;6.280;2022-08-19T11:57:39;7.15;;;5.22;;
46493;SDS011;53214;49.314;6.280;2022-08-19T12:00:07;5.97;;;4.93;;
46493;SDS011;53214;49.314;6.280;2022-08-19T12:02:36;7.00;;;5.00;;
46493;SDS011;53214;49.314;6.280;2022-08-19T12:05:03;6.28;;;4.00;;
46493;SDS011;53214;49.314;6.280;2022-08-19T12:07:37;3.90;;;3.30;;
46493;SDS011;53214;49.314;6.280;2022-08-19T12:10:04;5.22;;;3.42;;
46493;SDS011;53214;49.314;6.280;2022-08-19T12:12:33;4.78;;;3.97;;
46493;SDS011;53214;49.314;6.280;2022-08-19T12:15:00;5.50;;;3.90;;
46493;SDS011;53214;49.314;6.280;2022-08-19T12:17:28;4.63;;;3.70;;
46493;SDS011;53214;49.314;6.280;2022-08-19T12:19:57;4.97;;;4.00;;
46493;SDS011;53214;49.314;6.280;2022-08-19T12:22:24;4.28;;;3.38;;
46493;SDS011;53214;49.314;6.280;2022-08-19T12:24:50;5.35;;;3.00;;
46493;SDS011;53214;49.314;6.280;2022-08-19T12:27:19;4.43;;;3.13;;
46493;SDS011;53214;49.314;6.280;2022-08-19T12:30:07;4.03;;;3.10;;
46493;SDS011;53214;49.314;6.280;2022-08-19T12:32:36;4.10;;;3.13;;
46493;SDS011;53214;49.314;6.280;2022-08-19T12:35:04;3.72;;;2.70;;
46493;SDS011;53214;49.314;6.280;2022-08-19T12:37:34;4.25;;;2.72;;
46493;SDS011;53214;49.314;6.280;2022-08-19T12:40:01;3.90;;;2.50;;
46493;SDS011;53214;49.314;6.280;2022-08-19T12:42:29;4.15;;;2.63;;
46493;SDS011;53214;49.314;6.280;2022-08-19T12:44:56;4.75;;;2.45;;
46493;SDS011;53214;49.314;6.280;2022-08-19T12:47:23;4.93;;;2.50;;
46493;SDS011;53214;49.314;6.280;2022-08-19T12:49:52;3.85;;;2.30;;
46493;SDS011;53214;49.314;6.280;2022-08-19T12:52:25;3.42;;;2.47;;
46493;SDS011;53214;49.314;6.280;2022-08-19T12:54:54;4.90;;;2.40;;
46493;SDS011;53214;49.314;6.280;2022-08-19T12:57:26;4.65;;;2.50;;
46493;SDS011;53214;49.314;6.280;2022-08-19T12:59:59;6.93;;;2.78;;
46493;SDS011;53214;49.314;6.280;2022-08-19T13:02:35;3.90;;;2.53;;
46493;SDS011;53214;49.314;6.280;2022-08-19T13:05:04;2.95;;;2.28;;
46493;SDS011;53214;49.314;6.280;2022-08-19T13:07:34;4.13;;;2.50;;
46493;SDS011;53214;49.314;6.280;2022-08-19T13:10:03;4.15;;;2.47;;
46493;SDS011;53214;49.314;6.280;2022-08-19T13:12:35;4.60;;;2.38;;
46493;SDS011;53214;49.314;6.280;2022-08-19T13:15:02;4.20;;;2.42;;
46493;SDS011;53214;49.314;6.280;2022-08-19T13:17:36;3.45;;;2.20;;
46493;SDS011;53214;49.314;6.280;2022-08-19T13:20:04;3.20;;;2.03;;
46493;SDS011;53214;49.314;6.280;2022-08-19T13:22:34;3.88;;;2.40;;
46493;SDS011;53214;49.314;6.280;2022-08-19T13:25:05;3.45;;;2.10;;
46493;SDS011;53214;49.314;6.280;2022-08-19T13:27:33;4.03;;;2.38;;
46493;SDS011;53214;49.314;6.280;2022-08-19T13:30:00;5.88;;;2.30;;
46493;SDS011;53214;49.314;6.280;2022-08-19T13:32:46;3.85;;;2.42;;
46493;SDS011;53214;49.314;6.280;2022-08-19T13:35:32;3.03;;;2.30;;
46493;SDS011;53214;49.314;6.280;2022-08-19T13:37:59;2.97;;;2.33;;
46493;SDS011;53214;49.314;6.280;2022-08-19T13:40:37;2.92;;;2.30;;
46493;SDS011;53214;49.314;6.280;2022-08-19T13:43:06;3.95;;;2.13;;
46493;SDS011;53214;49.314;6.280;2022-08-19T13:45:49;4.20;;;2.10;;
46493;SDS011;53214;49.314;6.280;2022-08-19T13:48:22;4.22;;;2.60;;
46493;SDS011;53214;49.314;6.280;2022-08-19T13:50:49;4.63;;;2.10;;
46493;SDS011;53214;49.314;6.280;2022-08-19T13:53:16;2.50;;;2.10;;
46493;SDS011;53214;49.314;6.280;2022-08-19T13:55:43;2.95;;;2.35;;
46493;SDS011;53214;49.314;6.280;2022-08-19T13:58:11;4.20;;;2.53;;
46493;SDS011;53214;49.314;6.280;2022-08-19T14:00:39;2.75;;;1.88;;
46493;SDS011;53214;49.314;6.280;2022-08-19T14:03:08;3.15;;;2.17;;
46493;SDS011;53214;49.314;6.280;2022-08-19T14:05:35;4.38;;;2.20;;
46493;SDS011;53214;49.314;6.280;2022-08-19T14:08:02;2.63;;;1.70;;
46493;SDS011;53214;49.314;6.280;2022-08-19T14:10:29;3.70;;;1.63;;
46493;SDS011;53214;49.314;6.280;2022-08-19T14:12:58;1.40;;;1.02;;
46493;SDS011;53214;49.314;6.280;2022-08-19T14:15:28;3.17;;;1.20;;
46493;SDS011;53214;49.314;6.280;2022-08-19T14:17:55;1.75;;;1.30;;
46493;SDS011;53214;49.314;6.280;2022-08-19T14:20:23;5.28;;;1.00;;
46493;SDS011;53214;49.314;6.280;2022-08-19T14:22:51;1.65;;;0.80;;
46493;SDS011;53214;49.314;6.280;2022-08-19T14:25:21;2.05;;;0.80;;
46493;SDS011;53214;49.314;6.280;2022-08-19T14:27:50;1.33;;;0.82;;
46493;SDS011;53214;49.314;6.280;2022-08-19T14:30:19;1.00;;;0.70;;
46493;SDS011;53214;49.314;6.280;2022-08-19T14:32:49;4.22;;;0.77;;
46493;SDS011;53214;49.314;6.280;2022-08-19T14:35:16;3.03;;;0.80;;
46493;SDS011;53214;49.314;6.280;2022-08-19T14:37:43;1.55;;;0.70;;
46493;SDS011;53214;49.314;6.280;2022-08-19T14:40:15;2.50;;;0.90;;
46493;SDS011;53214;49.314;6.280;2022-08-19T14:42:47;1.77;;;1.00;;
46493;SDS011;53214;49.314;6.280;2022-08-19T14:45:14;2.55;;;0.90;;
46493;SDS011;53214;49.314;6.280;2022-08-19T14:47:41;1.05;;;0.55;;
46493;SDS011;53214;49.314;6.280;2022-08-19T14:50:11;2.15;;;0.80;;
46493;SDS011;53214;49.314;6.280;2022-08-19T14:52:44;4.00;;;0.90;;
46493;SDS011;53214;49.314;6.280;2022-08-19T14:55:17;1.52;;;0.70;;
46493;SDS011;53214;49.314;6.280;2022-08-19T14:57:44;1.67;;;0.90;;
46493;SDS011;53214;49.314;6.280;2022-08-19T15:00:12;1.15;;;0.70;;
46493;SDS011;53214;49.314;6.280;2022-08-19T15:02:40;1.15;;;0.70;;
46493;SDS011;53214;49.314;6.280;2022-08-19T15:05:10;2.30;;;0.70;;
46493;SDS011;53214;49.314;6.280;2022-08-19T15:07:39;1.42;;;0.70;;
46493;SDS011;53214;49.314;6.280;2022-08-19T15:10:07;2.38;;;0.70;;
46493;SDS011;53214;49.314;6.280;2022-08-19T15:12:36;2.22;;;0.70;;
46493;SDS011;53214;49.314;6.280;2022-08-19T15:15:07;1.55;;;0.70;;
46493;SDS011;53214;49.314;6.280;2022-08-19T15:17:44;1.27;;;0.77;;